createdAt,value
2023-03-08T00:00:25.887Z,8.50
2023-03-08T00:01:25.933Z,8.30
2023-03-08T00:02:25.864Z,8.20
2023-03-08T00:03:25.966Z,8.60
2023-03-08T00:04:26.051Z,8.50
2023-03-08T00:05:25.864Z,8.50
2023-03-08T00:06:25.824Z,8.90
2023-03-08T00:07:25.835Z,8.60
2023-03-08T00:08:25.884Z,8.20
2023-03-08T00:09:25.822Z,8.10
2023-03-08T00:10:25.797Z,8.00
2023-03-08T00:11:25.799Z,9.00
2023-03-08T00:12:25.750Z,8.50
2023-03-08T00:13:25.765Z,8.00
2023-03-08T00:14:25.733Z,8.60
2023-03-08T00:15:25.752Z,7.90
2023-03-08T00:16:25.834Z,8.10
2023-03-08T00:17:25.698Z,8.10
2023-03-08T00:18:25.717Z,8.00
2023-03-08T00:19:25.691Z,8.30
2023-03-08T00:20:25.675Z,8.00
2023-03-08T00:21:25.676Z,8.40
2023-03-08T00:22:25.698Z,8.30
2023-03-08T00:23:25.626Z,8.20
2023-03-08T00:24:25.691Z,8.40
2023-03-08T00:25:25.614Z,8.80
2023-03-08T00:26:25.608Z,8.90
2023-03-08T00:27:25.586Z,8.70
2023-03-08T00:28:25.573Z,8.40
2023-03-08T00:29:25.673Z,9.10
2023-03-08T00:30:25.570Z,8.80
2023-03-08T00:31:25.729Z,9.00
2023-03-08T00:32:25.568Z,8.70
2023-03-08T00:33:25.523Z,9.00
2023-03-08T00:34:25.523Z,9.10
2023-03-08T00:35:25.634Z,8.40
2023-03-08T00:36:25.540Z,9.20
2023-03-08T00:37:25.487Z,9.10
2023-03-08T00:38:25.494Z,8.70
2023-03-08T00:39:25.456Z,8.90
2023-03-08T00:40:25.444Z,9.50
2023-03-08T00:41:25.559Z,9.00
2023-03-08T00:42:25.423Z,9.20
2023-03-08T00:43:25.428Z,9.00
2023-03-08T00:44:25.430Z,9.60
2023-03-08T00:45:25.385Z,9.10
2023-03-08T00:46:25.431Z,9.80
2023-03-08T00:47:25.439Z,9.30
2023-03-08T00:48:25.380Z,9.50
2023-03-08T00:49:25.364Z,9.80
2023-03-08T00:50:25.341Z,9.60
2023-03-08T00:51:25.351Z,9.60
2023-03-08T00:52:25.308Z,10.20
2023-03-08T00:53:25.402Z,9.30
2023-03-08T00:54:25.302Z,9.70
2023-03-08T00:55:25.289Z,10.00
2023-03-08T00:56:25.265Z,9.50
2023-03-08T00:57:25.258Z,9.70
2023-03-08T00:58:25.248Z,9.80
2023-03-08T00:59:25.300Z,10.00
2023-03-08T01:00:25.236Z,9.70
2023-03-08T01:01:25.233Z,9.90
2023-03-08T01:02:25.197Z,8.90
2023-03-08T01:03:25.213Z,9.60
2023-03-08T01:04:25.202Z,9.50
2023-03-08T01:05:25.745Z,9.80
2023-03-08T01:06:25.175Z,9.60
2023-03-08T01:07:25.175Z,9.80
2023-03-08T01:08:25.137Z,9.70
2023-03-08T01:09:25.140Z,10.00
2023-03-08T01:10:25.127Z,9.70
2023-03-08T01:11:25.130Z,9.70
2023-03-08T01:12:25.112Z,9.70
2023-03-08T01:13:25.079Z,10.10
2023-03-08T01:14:25.075Z,9.30
2023-03-08T01:15:25.057Z,9.80
2023-03-08T01:16:25.076Z,9.70
2023-03-08T01:17:25.063Z,9.90
2023-03-08T01:18:25.036Z,9.40
2023-03-08T01:19:25.047Z,10.00
2023-03-08T01:20:24.995Z,9.80
2023-03-08T01:21:25.003Z,9.90
2023-03-08T01:22:24.978Z,10.40
2023-03-08T01:23:25.000Z,10.10
2023-03-08T01:24:24.948Z,9.80
2023-03-08T01:25:25.020Z,10.10
2023-03-08T01:26:24.931Z,9.90
2023-03-08T01:27:24.975Z,10.40
2023-03-08T01:28:24.927Z,10.40
2023-03-08T01:29:24.911Z,10.40
2023-03-08T01:30:24.894Z,10.20
2023-03-08T01:31:24.944Z,10.00
2023-03-08T01:32:24.888Z,10.50
2023-03-08T01:33:24.849Z,10.70
2023-03-08T01:34:24.851Z,10.90
2023-03-08T01:35:24.849Z,10.80
2023-03-08T01:36:24.818Z,11.30
2023-03-08T01:37:24.831Z,10.60
2023-03-08T01:38:24.817Z,11.10
2023-03-08T01:39:24.842Z,10.30
2023-03-08T01:40:24.793Z,11.20
2023-03-08T01:41:24.756Z,10.80
2023-03-08T01:42:24.743Z,11.30
2023-03-08T01:43:24.736Z,10.90
2023-03-08T01:44:24.784Z,10.70
2023-03-08T01:45:24.761Z,11.30
2023-03-08T01:46:24.723Z,11.10
2023-03-08T01:47:24.689Z,11.00
2023-03-08T01:48:24.691Z,10.60
2023-03-08T01:49:24.696Z,10.60
2023-03-08T01:50:24.686Z,10.80
2023-03-08T01:51:24.660Z,10.80
2023-03-08T01:52:24.667Z,10.10
2023-03-08T01:53:24.620Z,10.30
2023-03-08T01:54:24.606Z,10.80
2023-03-08T01:55:24.624Z,10.00
2023-03-08T01:56:24.697Z,10.00
2023-03-08T01:57:24.600Z,10.20
2023-03-08T01:58:24.562Z,10.40
2023-03-08T01:59:24.555Z,9.20
2023-03-08T02:00:24.558Z,9.70
2023-03-08T02:01:24.584Z,9.80
2023-03-08T02:02:25.505Z,9.60
2023-03-08T02:03:24.551Z,10.20
2023-03-08T02:04:24.494Z,9.30
2023-03-08T02:05:24.502Z,9.30
2023-03-08T02:06:24.472Z,9.50
2023-03-08T02:07:24.497Z,9.50
2023-03-08T02:08:24.473Z,8.60
2023-03-08T02:09:24.480Z,8.50
2023-03-08T02:10:24.498Z,9.30
2023-03-08T02:11:24.443Z,9.60
2023-03-08T02:12:24.406Z,9.30
2023-03-08T02:13:24.412Z,9.20
2023-03-08T02:14:24.409Z,9.00
2023-03-08T02:15:24.405Z,9.00
2023-03-08T02:16:24.364Z,9.20
2023-03-08T02:17:24.372Z,9.00
2023-03-08T02:18:24.342Z,8.40
2023-03-08T02:19:24.347Z,8.60
2023-03-08T02:20:24.360Z,8.80
2023-03-08T02:21:24.346Z,9.00
2023-03-08T02:22:24.308Z,8.50
2023-03-08T02:23:24.312Z,9.00
2023-03-08T02:24:24.315Z,8.70
2023-03-08T02:25:24.302Z,9.00
2023-03-08T02:26:24.252Z,8.60
2023-03-08T02:27:24.376Z,8.90
2023-03-08T02:28:24.229Z,8.50
2023-03-08T02:29:24.277Z,8.50
2023-03-08T02:30:24.234Z,8.40
2023-03-08T02:31:24.232Z,8.90
2023-03-08T02:32:24.338Z,8.60
2023-03-08T02:33:24.211Z,8.50
2023-03-08T02:34:24.191Z,8.70
2023-03-08T02:35:24.211Z,8.70
2023-03-08T02:36:24.165Z,8.80
2023-03-08T02:37:24.176Z,8.70
2023-03-08T02:38:24.128Z,9.10
2023-03-08T02:39:24.110Z,9.20
2023-03-08T02:40:24.118Z,9.30
2023-03-08T02:41:24.104Z,8.80
2023-03-08T02:42:24.102Z,8.60
2023-03-08T02:43:24.128Z,8.40
2023-03-08T02:44:24.058Z,8.80
2023-03-08T02:45:24.043Z,9.10
2023-03-08T02:46:24.039Z,8.90
2023-03-08T02:47:24.057Z,9.00
2023-03-08T02:48:24.345Z,8.70
2023-03-08T02:49:24.037Z,9.10
2023-03-08T02:50:23.983Z,8.10
2023-03-08T02:51:23.980Z,8.70
2023-03-08T02:52:23.977Z,8.80
2023-03-08T02:53:23.970Z,8.70
2023-03-08T02:54:24.005Z,9.60
2023-03-08T02:55:23.933Z,9.30
2023-03-08T02:56:23.918Z,8.70
2023-03-08T02:57:23.916Z,9.20
2023-03-08T02:58:23.936Z,8.60
2023-03-08T02:59:24.168Z,9.10
2023-03-08T03:00:23.930Z,9.10
2023-03-08T03:01:23.895Z,9.20
2023-03-08T03:02:23.853Z,9.10
2023-03-08T03:03:23.919Z,9.20
2023-03-08T03:04:23.888Z,9.40
2023-03-08T03:05:23.845Z,9.40
2023-03-08T03:06:23.849Z,9.30
2023-03-08T03:07:23.811Z,9.00
2023-03-08T03:08:23.797Z,9.40
2023-03-08T03:09:23.806Z,9.00
2023-03-08T03:10:23.785Z,8.80
2023-03-08T03:11:23.790Z,9.30
2023-03-08T03:12:23.773Z,8.90
2023-03-08T03:13:23.740Z,9.40
2023-03-08T03:14:23.711Z,9.30
2023-03-08T03:15:23.723Z,9.20
2023-03-08T03:16:23.717Z,9.30
2023-03-08T03:17:23.719Z,9.60
2023-03-08T03:18:23.669Z,9.30
2023-03-08T03:19:23.661Z,9.20
2023-03-08T03:20:23.784Z,9.00
2023-03-08T03:21:23.639Z,9.00
2023-03-08T03:22:23.650Z,9.60
2023-03-08T03:23:23.666Z,9.60
2023-03-08T03:24:23.602Z,9.40
2023-03-08T03:25:23.589Z,9.00
2023-03-08T03:26:23.579Z,9.00
2023-03-08T03:27:23.616Z,9.20
2023-03-08T03:28:23.582Z,9.10
2023-03-08T03:29:23.608Z,9.40
2023-03-08T03:30:23.527Z,9.10
2023-03-08T03:31:23.586Z,9.20
2023-03-08T03:32:23.553Z,9.30
2023-03-08T03:33:23.513Z,9.60
2023-03-08T03:34:23.485Z,8.80
2023-03-08T03:35:23.479Z,9.50
2023-03-08T03:36:23.479Z,9.50
2023-03-08T03:37:23.458Z,9.40
2023-03-08T03:38:23.488Z,9.20
2023-03-08T03:39:23.458Z,9.50
2023-03-08T03:40:23.428Z,10.20
2023-03-08T03:41:23.413Z,9.50
2023-03-08T03:42:23.412Z,9.40
2023-03-08T03:43:23.414Z,9.80
2023-03-08T03:44:23.417Z,9.40
2023-03-08T03:45:23.388Z,10.30
2023-03-08T03:46:23.481Z,9.60
2023-03-08T03:47:23.364Z,9.50
2023-03-08T03:48:23.338Z,9.70
2023-03-08T03:49:23.371Z,9.80
2023-03-08T03:50:23.332Z,9.90
2023-03-08T03:51:23.330Z,9.90
2023-03-08T03:52:23.291Z,10.10
2023-03-08T03:53:23.289Z,9.50
2023-03-08T03:54:23.312Z,9.80
2023-03-08T03:55:23.282Z,9.80
2023-03-08T03:56:23.266Z,9.70
2023-03-08T03:57:23.275Z,10.30
2023-03-08T03:58:23.228Z,10.00
2023-03-08T03:59:25.638Z,10.20
2023-03-08T04:00:23.218Z,10.00
2023-03-08T04:01:23.226Z,9.90
2023-03-08T04:02:23.224Z,10.30
2023-03-08T04:03:23.361Z,9.90
2023-03-08T04:04:23.175Z,9.70
2023-03-08T04:05:23.177Z,9.80
2023-03-08T04:06:23.152Z,10.20
2023-03-08T04:07:23.199Z,10.30
2023-03-08T04:08:23.139Z,10.40
2023-03-08T04:09:23.152Z,9.80
2023-03-08T04:10:23.106Z,10.30
2023-03-08T04:11:23.096Z,10.00
2023-03-08T04:12:23.103Z,10.00
2023-03-08T04:13:23.125Z,10.30
2023-03-08T04:14:23.076Z,9.70
2023-03-08T04:15:23.084Z,10.20
2023-03-08T04:16:23.152Z,10.00
2023-03-08T04:17:23.031Z,10.50
2023-03-08T04:18:23.017Z,9.90
2023-03-08T04:19:23.063Z,9.70
2023-03-08T04:20:23.026Z,9.90
2023-03-08T04:21:22.978Z,10.00
2023-03-08T04:22:23.007Z,10.10
2023-03-08T04:23:22.955Z,9.90
2023-03-08T04:24:22.948Z,9.90
2023-03-08T04:25:22.985Z,10.20
2023-03-08T04:26:22.917Z,10.40
2023-03-08T04:27:22.905Z,10.00
2023-03-08T04:28:22.897Z,10.00
2023-03-08T04:29:22.892Z,10.40
2023-03-08T04:30:22.901Z,10.30
2023-03-08T04:31:22.950Z,10.20
2023-03-08T04:32:22.863Z,10.20
2023-03-08T04:33:22.839Z,11.10
2023-03-08T04:34:22.836Z,10.10
2023-03-08T04:35:22.920Z,10.70
2023-03-08T04:36:22.854Z,10.20
2023-03-08T04:37:22.870Z,10.50
2023-03-08T04:38:22.784Z,10.20
2023-03-08T04:39:22.770Z,9.90
2023-03-08T04:40:22.782Z,10.70
2023-03-08T04:41:22.768Z,10.40
2023-03-08T04:42:22.753Z,10.50
2023-03-08T04:43:22.780Z,9.90
2023-03-08T04:44:22.715Z,10.30
2023-03-08T04:45:22.727Z,10.90
2023-03-08T04:46:22.775Z,11.20
2023-03-08T04:47:22.693Z,10.70
2023-03-08T04:48:24.769Z,10.50
2023-03-08T04:49:22.720Z,10.50
2023-03-08T04:50:22.646Z,10.90
2023-03-08T04:51:22.672Z,10.50
2023-03-08T04:52:22.625Z,11.00
2023-03-08T04:53:22.649Z,11.00
2023-03-08T04:54:22.628Z,11.10
2023-03-08T04:55:22.662Z,11.00
2023-03-08T04:56:22.619Z,11.10
2023-03-08T04:57:22.602Z,11.70
2023-03-08T04:58:22.570Z,11.60
2023-03-08T04:59:22.576Z,11.60
2023-03-08T05:00:22.568Z,11.20
2023-03-08T05:01:22.597Z,12.00
2023-03-08T05:02:22.575Z,11.00
2023-03-08T05:03:22.528Z,11.60
2023-03-08T05:04:22.503Z,11.30
2023-03-08T05:05:22.501Z,11.10
2023-03-08T05:06:22.494Z,11.50
2023-03-08T05:07:22.579Z,11.50
2023-03-08T05:08:22.483Z,11.10
2023-03-08T05:09:22.465Z,10.80
2023-03-08T05:10:22.446Z,12.00
2023-03-08T05:11:22.437Z,11.60
2023-03-08T05:12:22.398Z,11.20
2023-03-08T05:13:22.407Z,11.80
2023-03-08T05:14:22.402Z,12.10
2023-03-08T05:15:22.403Z,12.20
2023-03-08T05:16:22.533Z,12.20
2023-03-08T05:17:22.386Z,12.20
2023-03-08T05:18:22.392Z,12.40
2023-03-08T05:19:22.402Z,11.60
2023-03-08T05:20:22.319Z,12.10
2023-03-08T05:21:22.313Z,12.20
2023-03-08T05:22:22.313Z,12.50
2023-03-08T05:23:22.299Z,12.20
2023-03-08T05:24:22.274Z,12.70
2023-03-08T05:25:22.300Z,13.40
2023-03-08T05:26:22.256Z,12.80
2023-03-08T05:27:22.253Z,13.40
2023-03-08T05:28:22.249Z,13.20
2023-03-08T05:29:22.222Z,13.70
2023-03-08T05:30:22.197Z,13.20
2023-03-08T05:31:22.283Z,12.90
2023-03-08T05:32:22.251Z,12.60
2023-03-08T05:33:22.183Z,12.60
2023-03-08T05:34:22.199Z,12.10
2023-03-08T05:35:22.757Z,12.40
2023-03-08T05:36:22.150Z,12.70
2023-03-08T05:37:22.124Z,11.60
2023-03-08T05:38:22.175Z,11.90
2023-03-08T05:39:22.151Z,11.30
2023-03-08T05:40:22.093Z,12.10
2023-03-08T05:41:22.070Z,11.60
2023-03-08T05:42:22.063Z,11.50
2023-03-08T05:43:22.050Z,11.60
2023-03-08T05:44:22.074Z,12.60
2023-03-08T05:45:22.089Z,12.70
2023-03-08T05:46:22.211Z,13.00
2023-03-08T05:47:22.003Z,12.20
2023-03-08T05:48:21.996Z,12.40
2023-03-08T05:49:22.000Z,12.20
2023-03-08T05:50:22.011Z,12.60
2023-03-08T05:51:21.961Z,12.80
2023-03-08T05:52:21.966Z,12.10
2023-03-08T05:53:21.937Z,12.10
2023-03-08T05:54:21.930Z,12.20
2023-03-08T05:55:21.942Z,12.40
2023-03-08T05:56:21.950Z,12.60
2023-03-08T05:57:21.926Z,12.40
2023-03-08T05:58:21.878Z,11.80
2023-03-08T05:59:21.875Z,12.30
2023-03-08T06:00:21.857Z,12.00
2023-03-08T06:01:21.863Z,12.00
2023-03-08T06:02:21.907Z,12.00
2023-03-08T06:03:21.877Z,12.40
2023-03-08T06:04:21.811Z,12.40
2023-03-08T06:05:21.819Z,12.10
2023-03-08T06:06:21.794Z,11.90
2023-03-08T06:07:21.804Z,12.30
2023-03-08T06:08:21.802Z,11.90
2023-03-08T06:09:21.781Z,12.40
2023-03-08T06:10:21.750Z,12.50
2023-03-08T06:11:21.760Z,11.80
2023-03-08T06:12:21.732Z,12.50
2023-03-08T06:13:21.727Z,12.70
2023-03-08T06:14:21.696Z,11.70
2023-03-08T06:15:21.761Z,11.80
2023-03-08T06:16:21.731Z,11.90
2023-03-08T06:17:21.665Z,12.30
2023-03-08T06:18:21.667Z,12.20
2023-03-08T06:19:21.681Z,12.00
2023-03-08T06:20:21.632Z,12.10
2023-03-08T06:21:21.633Z,12.30
2023-03-08T06:22:21.610Z,12.00
2023-03-08T06:23:21.600Z,12.30
2023-03-08T06:24:21.618Z,12.30
2023-03-08T06:25:21.604Z,12.10
2023-03-08T06:26:21.558Z,12.60
2023-03-08T06:27:21.595Z,12.10
2023-03-08T06:28:21.550Z,12.30
2023-03-08T06:29:21.557Z,11.80
2023-03-08T06:30:21.536Z,12.30
2023-03-08T06:31:21.504Z,12.00
2023-03-08T06:32:21.539Z,12.00
2023-03-08T06:33:21.494Z,11.90
2023-03-08T06:34:21.480Z,12.70
2023-03-08T06:35:21.587Z,12.00
2023-03-08T06:36:21.479Z,12.60
2023-03-08T06:37:21.447Z,12.50
2023-03-08T06:38:21.433Z,12.70
2023-03-08T06:39:21.430Z,12.40
2023-03-08T06:40:21.448Z,12.30
2023-03-08T06:41:21.473Z,13.00
2023-03-08T06:42:31.343Z,12.10
2023-03-08T06:43:22.408Z,12.30
2023-03-08T06:44:21.387Z,12.50
2023-03-08T06:45:21.356Z,12.90
2023-03-08T06:46:21.437Z,12.30
2023-03-08T06:47:21.370Z,12.20
2023-03-08T06:48:21.322Z,12.30
2023-03-08T06:49:21.328Z,12.90
2023-03-08T06:50:21.301Z,12.70
2023-03-08T06:51:21.294Z,12.80
2023-03-08T06:52:21.299Z,12.40
2023-03-08T06:53:21.316Z,12.70
2023-03-08T06:54:21.271Z,12.10
2023-03-08T06:55:21.244Z,12.00
2023-03-08T06:56:21.249Z,12.30
2023-03-08T06:57:21.237Z,11.70
2023-03-08T06:58:21.240Z,12.30
2023-03-08T06:59:21.312Z,12.10
2023-03-08T07:00:21.201Z,12.50
2023-03-08T07:01:21.304Z,13.40
2023-03-08T07:02:21.184Z,12.60
2023-03-08T07:03:21.186Z,13.60
2023-03-08T07:04:21.210Z,13.20
2023-03-08T07:05:21.177Z,13.70
2023-03-08T07:06:21.119Z,15.30
2023-03-08T07:07:21.167Z,14.30
2023-03-08T07:08:21.136Z,14.00
2023-03-08T07:09:21.104Z,14.20
2023-03-08T07:10:21.096Z,14.30
2023-03-08T07:11:21.069Z,14.10
2023-03-08T07:12:21.057Z,13.60
2023-03-08T07:13:21.057Z,13.00
2023-03-08T07:14:21.047Z,13.30
2023-03-08T07:15:21.068Z,12.90
2023-03-08T07:16:21.039Z,12.50
2023-03-08T07:17:21.010Z,13.10
2023-03-08T07:18:20.996Z,12.80
2023-03-08T07:19:20.982Z,13.40
2023-03-08T07:20:20.969Z,14.00
2023-03-08T07:21:21.001Z,13.70
2023-03-08T07:22:20.935Z,13.50
2023-03-08T07:23:20.923Z,13.20
2023-03-08T07:24:20.912Z,14.10
2023-03-08T07:25:20.910Z,14.90
2023-03-08T07:26:20.956Z,14.70
2023-03-08T07:27:20.998Z,14.50
2023-03-08T07:28:20.874Z,14.80
2023-03-08T07:29:20.854Z,16.70
2023-03-08T07:30:20.855Z,15.50
2023-03-08T07:31:20.956Z,16.80
2023-03-08T07:32:21.026Z,14.50
2023-03-08T07:33:20.867Z,15.20
2023-03-08T07:34:20.799Z,18.10
2023-03-08T07:35:20.788Z,22.70
2023-03-08T07:36:20.898Z,22.90
2023-03-08T07:37:20.797Z,24.40
2023-03-08T07:38:20.786Z,28.50
2023-03-08T07:39:20.778Z,32.70
2023-03-08T07:40:20.799Z,31.00
2023-03-08T07:41:20.777Z,24.30
2023-03-08T07:42:20.791Z,19.40
2023-03-08T07:43:20.753Z,19.40
2023-03-08T07:44:20.723Z,16.40
2023-03-08T07:45:20.819Z,16.50
2023-03-08T07:46:20.731Z,16.60
2023-03-08T07:47:20.833Z,16.30
2023-03-08T07:48:20.652Z,16.00
2023-03-08T07:49:20.657Z,18.90
2023-03-08T07:50:20.702Z,25.10
2023-03-08T07:51:20.712Z,35.60
2023-03-08T07:52:20.629Z,28.70
2023-03-08T07:53:20.621Z,26.40
2023-03-08T07:54:21.734Z,25.60
2023-03-08T07:55:20.591Z,28.90
2023-03-08T07:56:20.562Z,19.80
2023-03-08T07:57:20.570Z,23.50
2023-03-08T07:58:20.575Z,29.90
2023-03-08T07:59:20.541Z,34.00
2023-03-08T08:00:20.539Z,27.80
2023-03-08T08:01:20.546Z,25.00
2023-03-08T08:02:20.492Z,28.50
2023-03-08T08:03:20.538Z,32.10
2023-03-08T08:04:20.558Z,28.70
2023-03-08T08:05:20.553Z,23.90
2023-03-08T08:06:20.471Z,18.30
2023-03-08T08:07:20.436Z,18.40
2023-03-08T08:08:20.604Z,17.30
2023-03-08T08:09:20.413Z,16.20
2023-03-08T08:10:20.427Z,16.00
2023-03-08T08:11:20.414Z,14.70
2023-03-08T08:12:20.400Z,16.00
2023-03-08T08:13:20.459Z,16.60
2023-03-08T08:14:20.356Z,16.60
2023-03-08T08:15:20.375Z,16.50
2023-03-08T08:16:20.451Z,15.30
2023-03-08T08:17:20.366Z,15.70
2023-03-08T08:18:20.325Z,16.90
2023-03-08T08:19:20.320Z,16.10
2023-03-08T08:20:20.307Z,15.70
2023-03-08T08:21:20.300Z,16.90
2023-03-08T08:22:20.293Z,16.60
2023-03-08T08:23:20.307Z,16.00
2023-03-08T08:24:20.280Z,14.80
2023-03-08T08:25:20.277Z,14.50
2023-03-08T08:26:20.221Z,14.80
2023-03-08T08:27:20.216Z,14.50
2023-03-08T08:28:20.231Z,15.70
2023-03-08T08:29:20.208Z,15.40
2023-03-08T08:30:20.242Z,15.10
2023-03-08T08:31:20.195Z,13.80
2023-03-08T08:32:20.212Z,13.50
2023-03-08T08:33:20.152Z,13.70
2023-03-08T08:34:20.181Z,13.80
2023-03-08T08:35:20.141Z,13.60
2023-03-08T08:36:20.182Z,14.20
2023-03-08T08:37:28.813Z,13.30
2023-03-08T08:38:20.092Z,13.80
2023-03-08T08:39:20.095Z,13.60
2023-03-08T08:40:20.061Z,13.00
2023-03-08T08:41:20.059Z,12.80
2023-03-08T08:42:20.041Z,12.50
2023-03-08T08:43:20.031Z,12.80
2023-03-08T08:44:20.051Z,12.60
2023-03-08T08:45:20.011Z,12.40
2023-03-08T08:46:20.020Z,13.50
2023-03-08T08:47:20.036Z,12.20
2023-03-08T08:48:20.012Z,12.80
2023-03-08T08:49:19.959Z,13.20
2023-03-08T08:50:19.957Z,14.20
2023-03-08T08:51:19.960Z,14.20
2023-03-08T08:52:19.952Z,15.20
2023-03-08T08:53:20.001Z,15.50
2023-03-08T08:54:20.000Z,14.60
2023-03-08T08:55:19.893Z,13.80
2023-03-08T08:56:26.725Z,14.20
2023-03-08T08:57:20.901Z,14.20
2023-03-08T08:58:19.873Z,14.10
2023-03-08T08:59:19.855Z,14.30
2023-03-08T09:00:19.836Z,14.50
2023-03-08T09:01:19.831Z,16.10
2023-03-08T09:02:19.897Z,15.20
2023-03-08T09:03:19.811Z,15.30
2023-03-08T09:04:19.940Z,13.90
2023-03-08T09:05:19.933Z,16.10
2023-03-08T09:06:19.781Z,14.70
2023-03-08T09:07:19.813Z,16.70
2023-03-08T09:08:19.766Z,15.70
2023-03-08T09:09:19.740Z,14.50
2023-03-08T09:10:19.766Z,14.70
2023-03-08T09:11:19.738Z,14.10
2023-03-08T09:12:19.700Z,14.20
2023-03-08T09:13:19.727Z,14.60
2023-03-08T09:14:19.692Z,14.60
2023-03-08T09:15:19.681Z,14.40
2023-03-08T09:16:19.760Z,14.50
2023-03-08T09:17:19.661Z,14.80
2023-03-08T09:18:19.633Z,13.80
2023-03-08T09:19:19.739Z,13.50
2023-03-08T09:20:22.101Z,14.20
2023-03-08T09:21:19.606Z,14.80
2023-03-08T09:22:19.649Z,14.00
2023-03-08T09:23:19.637Z,14.60
2023-03-08T09:24:19.587Z,14.90
2023-03-08T09:25:19.590Z,14.60
2023-03-08T09:26:19.555Z,13.90
2023-03-08T09:27:19.538Z,14.60
2023-03-08T09:28:19.553Z,15.30
2023-03-08T09:29:19.534Z,14.60
2023-03-08T09:30:19.522Z,14.20
2023-03-08T09:31:19.559Z,14.60
2023-03-08T09:32:19.512Z,15.00
2023-03-08T09:33:19.484Z,14.80
2023-03-08T09:34:19.546Z,15.00
2023-03-08T09:35:19.580Z,13.80
2023-03-08T09:36:19.439Z,14.80
2023-03-08T09:37:19.442Z,14.50
2023-03-08T09:38:19.417Z,14.40
2023-03-08T09:39:19.454Z,14.50
2023-03-08T09:40:19.412Z,14.50
2023-03-08T09:41:19.440Z,15.30
2023-03-08T09:42:19.384Z,15.30
2023-03-08T09:43:19.369Z,15.20
2023-03-08T09:44:19.348Z,15.70
2023-03-08T09:45:19.342Z,15.50
2023-03-08T09:46:19.415Z,14.60
2023-03-08T09:47:19.341Z,16.00
2023-03-08T09:48:19.384Z,16.30
2023-03-08T09:49:19.308Z,15.60
2023-03-08T09:50:19.302Z,15.70
2023-03-08T09:51:19.294Z,15.90
2023-03-08T09:52:19.274Z,17.30
2023-03-08T09:53:19.288Z,17.70
2023-03-08T09:54:19.243Z,16.10
2023-03-08T09:55:19.273Z,16.10
2023-03-08T09:56:19.210Z,16.00
2023-03-08T09:57:19.242Z,14.90
2023-03-08T09:58:19.843Z,15.60
2023-03-08T09:59:19.193Z,14.80
2023-03-08T10:00:19.176Z,14.00
2023-03-08T10:01:19.167Z,13.80
2023-03-08T10:02:19.197Z,14.20
2023-03-08T10:03:19.131Z,13.40
2023-03-08T10:04:19.198Z,13.60
2023-03-08T10:05:19.152Z,12.80
2023-03-08T10:06:19.094Z,13.70
2023-03-08T10:07:19.083Z,13.10
2023-03-08T10:08:19.080Z,13.10
2023-03-08T10:09:19.070Z,13.20
2023-03-08T10:10:19.300Z,13.50
2023-03-08T10:11:19.085Z,13.10
2023-03-08T10:12:19.170Z,12.90
2023-03-08T10:13:19.015Z,13.10
2023-03-08T10:14:19.013Z,13.70
2023-03-08T10:15:19.022Z,12.60
2023-03-08T10:16:19.054Z,13.00
2023-03-08T10:17:18.988Z,12.80
2023-03-08T10:18:18.955Z,12.90
2023-03-08T10:19:18.951Z,13.30
2023-03-08T10:20:18.976Z,13.10
2023-03-08T10:21:18.944Z,13.10
2023-03-08T10:22:18.962Z,13.10
2023-03-08T10:23:18.901Z,12.50
2023-03-08T10:24:18.888Z,12.90
2023-03-08T10:25:18.880Z,13.60
2023-03-08T10:26:18.884Z,13.30
2023-03-08T10:27:18.904Z,14.00
2023-03-08T10:28:18.883Z,13.80
2023-03-08T10:29:18.838Z,13.30
2023-03-08T10:30:18.929Z,13.20
2023-03-08T10:31:18.844Z,12.90
2023-03-08T10:32:19.012Z,12.90
2023-03-08T10:33:18.804Z,12.90
2023-03-08T10:34:18.840Z,13.40
2023-03-08T10:35:18.778Z,13.40
2023-03-08T10:36:18.781Z,13.80
2023-03-08T10:37:18.766Z,14.20
2023-03-08T10:38:18.738Z,14.40
2023-03-08T10:39:18.733Z,14.80
2023-03-08T10:40:18.852Z,13.80
2023-03-08T10:41:18.751Z,13.70
2023-03-08T10:42:18.693Z,14.60
2023-03-08T10:43:18.707Z,15.20
2023-03-08T10:44:18.683Z,14.50
2023-03-08T10:45:18.680Z,14.10
2023-03-08T10:46:18.743Z,11.20
2023-03-08T10:47:18.657Z,12.80
2023-03-08T10:48:18.640Z,13.30
2023-03-08T10:49:18.673Z,12.10
2023-03-08T10:50:18.709Z,12.40
2023-03-08T10:51:18.602Z,13.10
2023-03-08T10:52:18.590Z,13.20
2023-03-08T10:53:18.570Z,12.00
2023-03-08T10:54:18.583Z,9.50
2023-03-08T10:55:18.577Z,8.70
2023-03-08T10:56:18.602Z,8.50
2023-03-08T10:57:18.524Z,8.60
2023-03-08T10:58:18.634Z,8.80
2023-03-08T10:59:18.660Z,8.90
2023-03-08T11:00:18.676Z,9.60
2023-03-08T11:01:18.491Z,9.80
2023-03-08T11:02:18.486Z,9.60
2023-03-08T11:03:18.471Z,9.80
2023-03-08T11:04:18.581Z,9.80
2023-03-08T11:05:18.469Z,9.90
2023-03-08T11:06:18.575Z,10.60
2023-03-08T11:07:18.511Z,10.40
2023-03-08T11:08:18.433Z,8.90
2023-03-08T11:09:18.473Z,9.50
2023-03-08T11:10:18.560Z,9.70
2023-03-08T11:11:18.421Z,9.20
2023-03-08T11:12:18.401Z,9.00
2023-03-08T11:13:18.367Z,8.90
2023-03-08T11:14:18.415Z,9.40
2023-03-08T11:15:18.470Z,9.90
2023-03-08T11:16:18.384Z,9.70
2023-03-08T11:17:18.319Z,10.40
2023-03-08T11:18:18.307Z,10.20
2023-03-08T11:19:18.394Z,9.90
2023-03-08T11:20:18.268Z,10.20
2023-03-08T11:21:18.292Z,10.40
2023-03-08T11:22:18.256Z,10.70
2023-03-08T11:23:18.235Z,10.80
2023-03-08T11:24:18.321Z,11.00
2023-03-08T11:25:18.219Z,11.00
2023-03-08T11:26:18.199Z,11.20
2023-03-08T11:27:18.212Z,13.30
2023-03-08T11:28:18.191Z,11.30
2023-03-08T11:29:18.197Z,11.00
2023-03-08T11:30:18.245Z,10.30
2023-03-08T11:31:18.310Z,10.50
2023-03-08T11:32:18.287Z,11.20
2023-03-08T11:33:18.442Z,10.60
2023-03-08T11:34:18.128Z,10.40
2023-03-08T11:35:18.113Z,11.70
2023-03-08T11:36:18.099Z,12.40
2023-03-08T11:37:18.093Z,11.60
2023-03-08T11:38:18.126Z,11.10
2023-03-08T11:39:18.082Z,10.80
2023-03-08T11:40:18.102Z,9.70
2023-03-08T11:41:18.073Z,11.20
2023-03-08T11:42:18.018Z,10.00
2023-03-08T11:43:18.035Z,9.00
2023-03-08T11:44:18.008Z,9.50
2023-03-08T11:45:18.012Z,9.70
2023-03-08T11:46:18.089Z,10.30
2023-03-08T11:47:17.985Z,8.90
2023-03-08T11:48:17.986Z,9.10
2023-03-08T11:49:17.942Z,8.50
2023-03-08T11:50:18.374Z,7.80
2023-03-08T11:51:17.973Z,8.40
2023-03-08T11:52:17.941Z,8.70
2023-03-08T11:53:17.930Z,9.00
2023-03-08T11:54:17.905Z,9.10
2023-03-08T11:55:17.917Z,8.70
2023-03-08T11:56:17.877Z,8.50
2023-03-08T11:57:17.907Z,8.70
2023-03-08T11:58:17.877Z,8.30
2023-03-08T11:59:17.829Z,8.20
2023-03-08T12:00:17.862Z,8.60
2023-03-08T12:01:17.840Z,8.10
2023-03-08T12:02:17.809Z,7.80
2023-03-08T12:03:17.870Z,7.80
2023-03-08T12:04:17.874Z,7.90
2023-03-08T12:05:17.826Z,8.00
2023-03-08T12:06:28.318Z,8.20
2023-03-08T12:07:18.982Z,8.60
2023-03-08T12:08:17.838Z,8.10
2023-03-08T12:09:17.874Z,8.60
2023-03-08T12:10:17.795Z,8.20
2023-03-08T12:11:17.691Z,8.30
2023-03-08T12:12:17.774Z,8.80
2023-03-08T12:13:18.364Z,8.20
2023-03-08T12:14:17.676Z,8.90
2023-03-08T12:15:17.709Z,9.00
2023-03-08T12:16:17.710Z,11.20
2023-03-08T12:17:17.770Z,9.30
2023-03-08T12:18:17.686Z,9.60
2023-03-08T12:19:17.656Z,9.50
2023-03-08T12:20:17.618Z,9.70
2023-03-08T12:21:17.611Z,8.60
2023-03-08T12:22:17.568Z,10.20
2023-03-08T12:23:17.561Z,10.60
2023-03-08T12:24:17.626Z,10.10
2023-03-08T12:25:17.575Z,11.20
2023-03-08T12:26:17.653Z,9.90
2023-03-08T12:27:17.507Z,11.00
2023-03-08T12:28:17.684Z,11.20
2023-03-08T12:29:17.558Z,17.90
2023-03-08T12:30:17.490Z,14.50
2023-03-08T12:31:26.954Z,13.30
2023-03-08T12:32:18.702Z,13.10
2023-03-08T12:33:17.638Z,9.90
2023-03-08T12:34:17.432Z,6.90
2023-03-08T12:35:17.450Z,7.20
2023-03-08T12:36:17.626Z,6.90
2023-03-08T12:37:17.528Z,6.60
2023-03-08T12:38:17.430Z,6.90
2023-03-08T12:39:17.418Z,6.70
2023-03-08T12:40:17.448Z,6.80
2023-03-08T12:41:17.414Z,6.70
2023-03-08T12:42:17.369Z,6.70
2023-03-08T12:43:17.367Z,6.20
2023-03-08T12:44:17.322Z,6.20
2023-03-08T12:45:17.327Z,6.10
2023-03-08T12:46:17.407Z,5.70
2023-03-08T12:47:17.333Z,6.20
2023-03-08T12:48:17.335Z,6.50
2023-03-08T12:49:17.369Z,6.60
2023-03-08T12:50:17.322Z,6.10
2023-03-08T12:51:17.329Z,5.90
2023-03-08T12:52:17.270Z,5.60
2023-03-08T12:53:17.241Z,6.20
2023-03-08T12:54:17.225Z,6.20
2023-03-08T12:55:17.285Z,5.90
2023-03-08T12:56:17.186Z,5.70
2023-03-08T12:57:17.191Z,6.50
2023-03-08T12:58:17.185Z,5.80
2023-03-08T12:59:17.170Z,5.70
2023-03-08T13:00:17.148Z,5.40
2023-03-08T13:01:17.226Z,5.20
2023-03-08T13:02:17.124Z,5.60